createdAt,value
2018-09-30T00:00:05.919Z,0.00
2018-09-30T00:01:05.894Z,0.00
2018-09-30T00:02:05.859Z,0.00
2018-09-30T00:03:06.038Z,0.00
2018-09-30T00:04:05.801Z,0.00
2018-09-30T00:05:05.772Z,0.00
2018-09-30T00:06:05.742Z,0.00
2018-09-30T00:07:05.713Z,0.00
2018-09-30T00:08:05.685Z,0.00
2018-09-30T00:09:05.655Z,0.00
2018-09-30T00:10:05.626Z,0.00
2018-09-30T00:11:05.598Z,0.00
2018-09-30T00:12:05.571Z,0.00
2018-09-30T00:13:05.540Z,0.00
2018-09-30T00:14:05.513Z,0.00
2018-09-30T00:15:05.481Z,0.00
2018-09-30T00:16:05.451Z,0.00
2018-09-30T00:17:05.424Z,0.00
2018-09-30T00:18:05.397Z,0.00
2018-09-30T00:19:05.373Z,0.00
2018-09-30T00:20:05.335Z,0.00
2018-09-30T00:21:05.307Z,0.00
2018-09-30T00:22:05.277Z,0.00
2018-09-30T00:23:05.251Z,0.00
2018-09-30T00:24:05.221Z,0.00
2018-09-30T00:25:05.190Z,0.00
2018-09-30T00:26:05.161Z,0.00
2018-09-30T00:27:05.179Z,0.00
2018-09-30T00:28:05.104Z,0.00
2018-09-30T00:29:05.081Z,0.00
2018-09-30T00:30:05.044Z,0.00
2018-09-30T00:31:05.131Z,0.00
2018-09-30T00:32:04.985Z,0.00
2018-09-30T00:33:04.967Z,0.00
2018-09-30T00:34:04.928Z,0.00
2018-09-30T00:35:04.902Z,0.00
2018-09-30T00:36:04.897Z,0.00
2018-09-30T00:37:04.841Z,0.00
2018-09-30T00:38:04.811Z,0.00
2018-09-30T00:39:04.785Z,0.00
2018-09-30T00:40:04.754Z,0.00
2018-09-30T00:41:04.725Z,0.00
2018-09-30T00:42:04.695Z,0.00
2018-09-30T00:43:04.670Z,0.00
2018-09-30T00:44:04.638Z,0.00
2018-09-30T00:45:04.609Z,0.00
2018-09-30T00:46:04.579Z,0.00
2018-09-30T00:47:04.550Z,0.00
2018-09-30T00:48:04.523Z,0.00
2018-09-30T00:49:04.945Z,0.00
2018-09-30T00:50:04.463Z,0.00
2018-09-30T00:51:04.437Z,0.00
2018-09-30T00:52:04.412Z,0.00
2018-09-30T00:53:04.377Z,0.00
2018-09-30T00:54:04.347Z,0.00
2018-09-30T00:55:04.318Z,0.00
2018-09-30T00:56:04.289Z,0.00
2018-09-30T00:57:04.263Z,0.00
2018-09-30T00:58:04.232Z,0.00
2018-09-30T00:59:04.201Z,0.00
2018-09-30T01:00:04.173Z,0.00
2018-09-30T01:01:04.145Z,0.00
2018-09-30T01:02:04.115Z,0.00
2018-09-30T01:03:04.095Z,0.00
2018-09-30T01:04:04.059Z,0.00
2018-09-30T01:05:04.029Z,0.00
2018-09-30T01:06:04.000Z,0.00
2018-09-30T01:07:03.974Z,0.00
2018-09-30T01:08:03.942Z,0.00
2018-09-30T01:09:03.914Z,0.00
2018-09-30T01:10:03.884Z,0.00
2018-09-30T01:11:03.856Z,0.00
2018-09-30T01:12:03.825Z,0.00
2018-09-30T01:13:03.798Z,0.00
2018-09-30T01:14:03.769Z,0.00
2018-09-30T01:15:03.742Z,0.00
2018-09-30T01:16:03.711Z,0.00
2018-09-30T01:17:03.685Z,0.00
2018-09-30T01:18:03.654Z,0.00
2018-09-30T01:19:03.635Z,0.00
2018-09-30T01:20:03.615Z,0.00
2018-09-30T01:21:03.565Z,0.00
2018-09-30T01:22:03.537Z,0.00
2018-09-30T01:23:03.514Z,0.00
2018-09-30T01:24:03.481Z,0.00
2018-09-30T01:25:03.452Z,0.00
2018-09-30T01:26:03.422Z,0.00
2018-09-30T01:27:03.394Z,0.00
2018-09-30T01:28:03.364Z,0.00
2018-09-30T01:29:03.336Z,0.00
2018-09-30T01:30:03.307Z,0.00
2018-09-30T01:31:03.279Z,0.00
2018-09-30T01:32:03.250Z,0.00
2018-09-30T01:33:03.221Z,0.00
2018-09-30T01:34:03.191Z,0.00
2018-09-30T01:35:03.163Z,0.00
2018-09-30T01:36:03.134Z,0.00
2018-09-30T01:37:03.105Z,0.00
2018-09-30T01:38:03.075Z,0.00
2018-09-30T01:39:03.047Z,0.00
2018-09-30T01:40:03.023Z,0.00
2018-09-30T01:41:03.011Z,0.00
2018-09-30T01:42:02.960Z,0.00
2018-09-30T01:43:02.946Z,0.00
2018-09-30T01:44:02.902Z,0.00
2018-09-30T01:45:02.881Z,0.00
2018-09-30T01:46:02.847Z,0.00
2018-09-30T01:47:02.844Z,0.00
2018-09-30T01:48:02.790Z,0.00
2018-09-30T01:49:02.758Z,0.00
2018-09-30T01:50:02.732Z,0.00
2018-09-30T01:51:02.702Z,0.00
2018-09-30T01:52:02.675Z,0.00
2018-09-30T01:53:02.642Z,0.00
2018-09-30T01:54:02.612Z,0.00
2018-09-30T01:55:02.588Z,0.00
2018-09-30T01:56:02.556Z,0.00
2018-09-30T01:57:02.527Z,0.00
2018-09-30T01:58:02.497Z,0.00
2018-09-30T01:59:02.469Z,0.00
2018-09-30T02:00:02.442Z,0.00
2018-09-30T02:01:02.413Z,0.00
2018-09-30T02:02:02.386Z,0.00
2018-09-30T02:03:02.353Z,0.00
2018-09-30T02:04:02.333Z,0.00
2018-09-30T02:05:02.297Z,0.00
2018-09-30T02:06:02.266Z,0.00
2018-09-30T02:07:02.237Z,0.00
2018-09-30T02:08:02.209Z,0.00
2018-09-30T02:09:02.180Z,0.00
2018-09-30T02:10:02.154Z,0.00
2018-09-30T02:11:02.122Z,0.00
2018-09-30T02:12:02.093Z,0.00
2018-09-30T02:13:02.067Z,0.00
2018-09-30T02:14:02.035Z,0.00
2018-09-30T02:15:02.010Z,0.00
2018-09-30T02:16:01.978Z,0.00
2018-09-30T02:17:01.947Z,0.00
2018-09-30T02:18:01.919Z,0.00
2018-09-30T02:19:01.890Z,0.00
2018-09-30T02:20:01.862Z,0.00
2018-09-30T02:21:01.836Z,0.00
2018-09-30T02:22:01.804Z,0.00
2018-09-30T02:23:01.774Z,0.00
2018-09-30T02:24:01.747Z,0.00
2018-09-30T02:25:01.720Z,0.00
2018-09-30T02:26:01.687Z,0.00
2018-09-30T02:27:01.660Z,0.00
2018-09-30T02:28:01.633Z,0.00
2018-09-30T02:29:01.602Z,0.00
2018-09-30T02:30:01.572Z,0.00
2018-09-30T02:31:01.543Z,0.00
2018-09-30T02:32:01.516Z,0.00
2018-09-30T02:33:01.486Z,0.00
2018-09-30T02:34:01.463Z,0.00
2018-09-30T02:35:01.427Z,0.00
2018-09-30T02:36:01.398Z,0.00
2018-09-30T02:37:01.370Z,0.00
2018-09-30T02:38:01.339Z,0.00
2018-09-30T02:39:01.311Z,0.00
2018-09-30T02:40:01.282Z,0.00
2018-09-30T02:41:01.256Z,0.00
2018-09-30T02:42:01.224Z,0.00
2018-09-30T02:43:01.195Z,0.00
2018-09-30T02:44:01.168Z,0.00
2018-09-30T02:45:01.137Z,0.00
2018-09-30T02:46:01.108Z,0.00
2018-09-30T02:47:01.079Z,0.00
2018-09-30T02:48:01.050Z,0.00
2018-09-30T02:49:01.023Z,0.00
2018-09-30T02:50:00.992Z,0.00
2018-09-30T02:51:00.962Z,0.00
2018-09-30T02:52:00.934Z,0.00
2018-09-30T02:53:00.905Z,0.00
2018-09-30T02:54:00.875Z,0.00
2018-09-30T02:55:00.846Z,0.00
2018-09-30T02:56:00.818Z,0.00
2018-09-30T02:57:00.789Z,0.00
2018-09-30T02:58:00.759Z,0.00
2018-09-30T02:59:00.734Z,0.00
2018-09-30T03:00:00.701Z,0.00
2018-09-30T03:01:00.676Z,0.00
2018-09-30T03:02:00.643Z,0.00
2018-09-30T03:03:00.616Z,0.00
2018-09-30T03:04:00.584Z,0.00
2018-09-30T03:05:00.555Z,0.00
2018-09-30T03:06:00.527Z,0.00
2018-09-30T03:07:00.497Z,0.00
2018-09-30T03:08:00.467Z,0.00
2018-09-30T03:09:00.438Z,0.00
2018-09-30T03:10:00.407Z,0.00
2018-09-30T03:11:00.380Z,0.00
2018-09-30T03:12:00.353Z,0.00
2018-09-30T03:13:00.321Z,0.00
2018-09-30T03:14:00.291Z,0.00
2018-09-30T03:15:00.264Z,0.00
2018-09-30T03:16:00.241Z,0.00
2018-09-30T03:17:00.204Z,0.00
2018-09-30T03:18:00.173Z,0.00
2018-09-30T03:19:00.145Z,0.00
2018-09-30T03:20:00.118Z,0.00
2018-09-30T03:21:00.089Z,0.00
2018-09-30T03:22:00.062Z,0.00
2018-09-30T03:23:00.028Z,0.00
2018-09-30T03:24:00.001Z,0.00
2018-09-30T03:24:59.971Z,0.00
2018-09-30T03:25:59.939Z,0.00
2018-09-30T03:26:59.914Z,0.00
2018-09-30T03:27:59.881Z,0.00
2018-09-30T03:28:59.860Z,0.00
2018-09-30T03:29:59.822Z,0.00
2018-09-30T03:30:59.797Z,0.00
2018-09-30T03:31:59.766Z,0.00
2018-09-30T03:32:59.735Z,0.00
2018-09-30T03:33:59.706Z,0.00
2018-09-30T03:34:59.676Z,0.00
2018-09-30T03:35:59.659Z,0.00
2018-09-30T03:36:59.617Z,0.00
2018-09-30T03:37:59.585Z,0.00
2018-09-30T03:38:59.809Z,0.00
2018-09-30T03:39:59.528Z,0.00
2018-09-30T03:40:59.499Z,0.00
2018-09-30T03:41:59.469Z,0.00
2018-09-30T03:42:59.441Z,0.00
2018-09-30T03:43:59.410Z,0.00
2018-09-30T03:44:59.381Z,0.00
2018-09-30T03:45:59.353Z,0.00
2018-09-30T03:46:59.322Z,0.00
2018-09-30T03:47:59.292Z,0.00
2018-09-30T03:48:59.263Z,0.00
2018-09-30T03:49:59.239Z,0.00
2018-09-30T03:50:59.202Z,0.00
2018-09-30T03:51:59.174Z,0.00
2018-09-30T03:52:59.155Z,0.00
2018-09-30T03:53:59.114Z,0.00
2018-09-30T03:54:59.088Z,0.00
2018-09-30T03:55:59.059Z,0.00
2018-09-30T03:56:59.027Z,0.00
2018-09-30T03:57:58.997Z,0.00
2018-09-30T03:58:58.967Z,0.00
2018-09-30T03:59:58.939Z,0.00
2018-09-30T04:00:58.911Z,0.00
2018-09-30T04:01:58.881Z,0.00
2018-09-30T04:02:58.853Z,0.00
2018-09-30T04:03:58.822Z,0.00
2018-09-30T04:04:58.791Z,0.00
2018-09-30T04:05:58.763Z,0.00
2018-09-30T04:06:58.733Z,0.00
2018-09-30T04:07:58.706Z,0.00
2018-09-30T04:08:58.671Z,0.00
2018-09-30T04:09:58.719Z,0.00
2018-09-30T04:10:58.617Z,0.00
2018-09-30T04:11:58.609Z,0.00
2018-09-30T04:12:58.553Z,0.00
2018-09-30T04:13:58.831Z,0.00
2018-09-30T04:14:58.500Z,0.00
2018-09-30T04:15:58.467Z,0.00
2018-09-30T04:16:58.524Z,0.00
2018-09-30T04:17:58.405Z,0.00
2018-09-30T04:18:58.676Z,0.00
2018-09-30T04:19:58.354Z,0.00
2018-09-30T04:20:58.316Z,0.00
2018-09-30T04:21:58.287Z,0.00
2018-09-30T04:22:58.256Z,0.00
2018-09-30T04:23:58.229Z,0.00
2018-09-30T04:24:58.197Z,0.00
2018-09-30T04:25:58.166Z,0.00
2018-09-30T04:26:58.142Z,0.00
2018-09-30T04:27:58.110Z,0.00
2018-09-30T04:28:58.084Z,0.00
2018-09-30T04:29:58.048Z,0.00
2018-09-30T04:30:58.267Z,0.00
2018-09-30T04:31:57.988Z,0.00
2018-09-30T04:32:57.960Z,0.00
2018-09-30T04:33:57.930Z,0.00
2018-09-30T04:34:57.899Z,0.00
2018-09-30T04:35:57.872Z,0.00
2018-09-30T04:36:57.839Z,0.00
2018-09-30T04:37:57.809Z,0.00
2018-09-30T04:38:57.780Z,0.00
2018-09-30T04:39:57.749Z,0.00
2018-09-30T04:40:57.721Z,0.00
2018-09-30T04:41:57.692Z,0.00
2018-09-30T04:42:57.665Z,0.00
2018-09-30T04:43:57.631Z,0.00
2018-09-30T04:44:57.608Z,0.00
2018-09-30T04:45:57.571Z,0.00
2018-09-30T04:46:57.541Z,0.00
2018-09-30T04:47:57.512Z,0.00
2018-09-30T04:48:57.482Z,0.00
2018-09-30T04:49:57.519Z,0.00
2018-09-30T04:50:57.422Z,0.00
2018-09-30T04:51:57.401Z,0.00
2018-09-30T04:52:57.363Z,0.00
2018-09-30T04:53:57.333Z,0.00
2018-09-30T04:54:57.304Z,0.00
2018-09-30T04:55:57.274Z,0.00
2018-09-30T04:56:57.247Z,0.00
2018-09-30T04:57:57.216Z,0.00
2018-09-30T04:58:57.185Z,0.00
2018-09-30T04:59:57.163Z,0.00
2018-09-30T05:00:57.126Z,0.00
2018-09-30T05:01:57.095Z,0.00
2018-09-30T05:02:57.066Z,0.00
2018-09-30T05:03:57.036Z,0.00
2018-09-30T05:04:57.009Z,5.63
2018-09-30T05:05:56.982Z,5.63
2018-09-30T05:06:56.949Z,5.63
2018-09-30T05:07:56.922Z,5.63
2018-09-30T05:08:56.888Z,11.25
2018-09-30T05:09:56.857Z,5.63
2018-09-30T05:10:56.829Z,5.63
2018-09-30T05:11:56.798Z,11.25
2018-09-30T05:12:56.782Z,11.25
2018-09-30T05:13:56.738Z,11.25
2018-09-30T05:14:56.710Z,11.25
2018-09-30T05:15:56.732Z,11.25
2018-09-30T05:16:56.653Z,11.25
2018-09-30T05:17:57.375Z,11.25
2018-09-30T05:18:56.592Z,11.25
2018-09-30T05:19:56.564Z,16.88
2018-09-30T05:20:56.532Z,16.88
2018-09-30T05:21:56.503Z,16.88
2018-09-30T05:22:56.476Z,16.88
2018-09-30T05:23:56.443Z,22.50
2018-09-30T05:24:56.419Z,22.50
2018-09-30T05:25:56.391Z,28.13
2018-09-30T05:26:56.354Z,28.13
2018-09-30T05:27:56.328Z,28.13
2018-09-30T05:28:56.295Z,33.75
2018-09-30T05:29:56.265Z,33.75
2018-09-30T05:30:56.236Z,45.00
2018-09-30T05:31:56.209Z,50.63
2018-09-30T05:32:56.177Z,56.25
2018-09-30T05:33:56.148Z,61.88
2018-09-30T05:34:56.117Z,67.50
2018-09-30T05:35:56.089Z,67.50
2018-09-30T05:36:56.064Z,73.13
2018-09-30T05:37:56.029Z,78.75
2018-09-30T05:38:55.999Z,73.13
2018-09-30T05:39:55.977Z,84.38
2018-09-30T05:40:55.941Z,90.00
2018-09-30T05:41:55.911Z,95.63
2018-09-30T05:42:55.881Z,101.25
2018-09-30T05:43:55.858Z,106.88
2018-09-30T05:44:55.823Z,118.13
2018-09-30T05:45:55.793Z,129.38
2018-09-30T05:46:55.765Z,146.25
2018-09-30T05:47:55.774Z,129.38
2018-09-30T05:48:55.752Z,90.00
2018-09-30T05:49:55.679Z,78.75
2018-09-30T05:50:55.647Z,78.75
2018-09-30T05:51:55.621Z,84.38
2018-09-30T05:52:55.588Z,84.38
2018-09-30T05:53:55.560Z,90.00
2018-09-30T05:54:55.535Z,95.63
2018-09-30T05:55:55.502Z,95.63
2018-09-30T05:56:55.473Z,101.25
2018-09-30T05:57:55.480Z,106.88
2018-09-30T05:58:55.867Z,112.50
2018-09-30T05:59:55.389Z,112.50
2018-09-30T06:00:55.356Z,118.13
2018-09-30T06:01:55.327Z,123.75
2018-09-30T06:02:55.298Z,129.38
2018-09-30T06:03:55.278Z,129.38
2018-09-30T06:04:55.240Z,135.00
2018-09-30T06:05:55.210Z,135.00
2018-09-30T06:06:55.181Z,140.63
2018-09-30T06:07:55.152Z,151.88
2018-09-30T06:08:55.165Z,151.88
2018-09-30T06:09:55.093Z,157.50
2018-09-30T06:10:55.064Z,163.13
2018-09-30T06:11:55.046Z,168.75
2018-09-30T06:12:55.015Z,174.38
2018-09-30T06:13:55.107Z,180.00
2018-09-30T06:14:54.954Z,191.25
2018-09-30T06:15:54.931Z,196.88
2018-09-30T06:16:54.888Z,202.50
2018-09-30T06:17:54.858Z,208.13
2018-09-30T06:18:54.834Z,213.75
2018-09-30T06:19:54.801Z,219.38
2018-09-30T06:20:54.772Z,225.00
2018-09-30T06:21:54.745Z,236.25
2018-09-30T06:22:54.712Z,241.88
2018-09-30T06:23:54.688Z,258.75
2018-09-30T06:24:54.655Z,264.38
2018-09-30T06:25:54.627Z,270.00
2018-09-30T06:26:54.600Z,281.25
2018-09-30T06:27:54.591Z,281.25
2018-09-30T06:28:54.539Z,286.88
2018-09-30T06:29:54.509Z,298.13
2018-09-30T06:30:54.481Z,303.75
2018-09-30T06:31:54.456Z,315.00
2018-09-30T06:32:54.422Z,320.63
2018-09-30T06:33:54.693Z,331.88
2018-09-30T06:34:54.366Z,343.13
2018-09-30T06:35:54.333Z,354.38
2018-09-30T06:36:54.306Z,365.63
2018-09-30T06:37:54.276Z,371.25
2018-09-30T06:38:54.247Z,382.50
2018-09-30T06:39:54.520Z,388.13
2018-09-30T06:40:54.190Z,399.38
2018-09-30T06:41:54.167Z,410.63
2018-09-30T06:42:54.131Z,416.25
2018-09-30T06:43:54.102Z,421.88
2018-09-30T06:44:54.089Z,427.50
2018-09-30T06:45:54.045Z,433.13
2018-09-30T06:46:54.017Z,433.13
2018-09-30T06:47:53.992Z,433.13
2018-09-30T06:48:53.959Z,427.50
2018-09-30T06:49:53.930Z,421.88
2018-09-30T06:50:54.027Z,421.88
2018-09-30T06:51:53.874Z,421.88
2018-09-30T06:52:53.845Z,416.25
2018-09-30T06:53:53.817Z,416.25
2018-09-30T06:54:53.792Z,410.63
2018-09-30T06:55:53.761Z,410.63
2018-09-30T06:56:53.729Z,405.00
2018-09-30T06:57:53.701Z,399.38
2018-09-30T06:58:53.673Z,399.38
2018-09-30T06:59:53.644Z,393.75
2018-09-30T07:00:53.623Z,393.75
2018-09-30T07:01:53.587Z,399.38
2018-09-30T07:02:53.560Z,405.00
2018-09-30T07:03:53.532Z,405.00
2018-09-30T07:04:53.555Z,410.63
2018-09-30T07:05:53.472Z,427.50
2018-09-30T07:06:53.444Z,438.75
2018-09-30T07:07:53.417Z,450.00
2018-09-30T07:08:53.389Z,472.50
2018-09-30T07:09:53.400Z,478.13
2018-09-30T07:10:53.388Z,545.63
2018-09-30T07:11:53.304Z,517.50
2018-09-30T07:12:53.280Z,641.25
2018-09-30T07:13:53.243Z,1113.75
2018-09-30T07:14:53.217Z,1428.75
2018-09-30T07:15:53.190Z,1456.88
2018-09-30T07:16:53.217Z,1468.13
2018-09-30T07:17:53.130Z,1485.00
2018-09-30T07:18:53.101Z,1479.38
2018-09-30T07:19:53.075Z,1496.25
2018-09-30T07:20:53.047Z,1468.13
2018-09-30T07:21:53.019Z,1456.88
2018-09-30T07:22:52.992Z,1479.38
2018-09-30T07:23:52.966Z,1518.75
2018-09-30T07:24:52.938Z,1535.63
2018-09-30T07:25:52.909Z,1552.50
2018-09-30T07:26:52.883Z,1591.88
2018-09-30T07:27:52.860Z,1597.50
2018-09-30T07:28:52.829Z,1580.63
2018-09-30T07:29:52.803Z,1614.38
2018-09-30T07:30:52.780Z,1608.75
2018-09-30T07:31:52.753Z,1580.63
2018-09-30T07:32:52.726Z,1558.13
2018-09-30T07:33:52.769Z,1501.88
2018-09-30T07:34:52.675Z,1411.88
2018-09-30T07:35:52.648Z,1372.50
2018-09-30T07:36:52.623Z,1378.13
2018-09-30T07:37:52.599Z,1344.38
2018-09-30T07:38:52.572Z,1271.25
2018-09-30T07:39:52.549Z,1198.13
2018-09-30T07:40:52.525Z,1181.25
2018-09-30T07:41:52.498Z,1203.75
2018-09-30T07:42:52.477Z,1226.25
2018-09-30T07:43:52.449Z,1231.88
2018-09-30T07:44:52.476Z,1237.50
2018-09-30T07:45:52.399Z,1299.38
2018-09-30T07:46:52.450Z,1355.63
2018-09-30T07:47:52.351Z,1383.75
2018-09-30T07:48:52.337Z,1445.63
2018-09-30T07:49:52.303Z,1546.88
2018-09-30T07:50:52.285Z,1631.25
2018-09-30T07:51:52.256Z,1653.75
2018-09-30T07:52:52.232Z,1665.00
2018-09-30T07:53:52.207Z,1676.25
2018-09-30T07:54:52.184Z,1665.00
2018-09-30T07:55:52.161Z,1693.13
2018-09-30T07:56:52.138Z,1715.63
2018-09-30T07:57:52.114Z,1704.38
2018-09-30T07:58:52.095Z,1738.13
2018-09-30T07:59:52.068Z,1755.00
2018-09-30T08:00:52.045Z,1755.00
2018-09-30T08:01:52.021Z,1749.38
2018-09-30T08:02:51.997Z,1839.38
2018-09-30T08:03:51.978Z,1901.25
2018-09-30T08:04:51.953Z,1929.38
2018-09-30T08:05:51.929Z,1946.25
2018-09-30T08:06:51.908Z,1980.00
2018-09-30T08:07:51.884Z,1980.00
2018-09-30T08:08:52.064Z,2025.00
2018-09-30T08:09:52.040Z,1996.88
2018-09-30T08:10:51.821Z,1940.63
2018-09-30T08:11:51.996Z,1968.75
2018-09-30T08:12:51.973Z,2025.00
2018-09-30T08:13:51.955Z,1963.13
2018-09-30T08:14:51.730Z,2081.25
2018-09-30T08:15:51.704Z,1839.38
2018-09-30T08:16:51.889Z,1569.38
2018-09-30T08:17:51.659Z,1513.13
2018-09-30T08:18:51.638Z,1530.00
2018-09-30T08:19:51.617Z,1586.25
2018-09-30T08:20:51.599Z,1586.25
2018-09-30T08:21:51.572Z,1580.63
2018-09-30T08:22:51.550Z,1631.25
2018-09-30T08:23:51.543Z,1546.88
2018-09-30T08:24:51.507Z,1417.50
2018-09-30T08:25:51.484Z,1333.13
2018-09-30T08:26:51.464Z,1293.75
2018-09-30T08:27:51.440Z,1485.00
2018-09-30T08:28:51.418Z,1721.25
2018-09-30T08:29:51.395Z,1670.63
2018-09-30T08:30:51.416Z,1777.50
2018-09-30T08:31:51.351Z,1822.50
2018-09-30T08:32:51.329Z,1873.13
2018-09-30T08:33:51.307Z,1856.25
2018-09-30T08:34:51.284Z,1828.13
2018-09-30T08:35:51.268Z,1805.63
2018-09-30T08:36:51.252Z,1805.63
2018-09-30T08:37:51.221Z,1828.13
2018-09-30T08:38:51.197Z,1850.63
2018-09-30T08:39:51.252Z,1822.50
2018-09-30T08:40:51.155Z,1861.88
2018-09-30T08:41:51.132Z,1833.75
2018-09-30T08:42:51.109Z,1845.00
2018-09-30T08:43:51.176Z,1890.00
2018-09-30T08:44:51.068Z,1873.13
2018-09-30T08:45:51.072Z,1901.25
2018-09-30T08:46:51.135Z,1918.13
2018-09-30T08:47:51.011Z,1957.50
2018-09-30T08:48:51.008Z,1996.88
2018-09-30T08:49:50.958Z,1980.00
2018-09-30T08:50:50.936Z,1957.50
2018-09-30T08:51:50.915Z,2025.00
2018-09-30T08:52:50.893Z,1935.00
2018-09-30T08:53:50.875Z,1968.75
2018-09-30T08:54:50.848Z,1935.00
2018-09-30T08:55:50.896Z,1974.38
2018-09-30T08:56:50.805Z,1985.63
2018-09-30T08:57:50.781Z,1935.00
2018-09-30T08:58:50.761Z,1968.75
2018-09-30T08:59:50.741Z,1918.13
2018-09-30T09:00:50.718Z,1963.13
2018-09-30T09:01:50.694Z,1935.00
2018-09-30T09:02:50.674Z,1974.38
2018-09-30T09:03:50.651Z,1940.63
2018-09-30T09:04:50.629Z,1974.38
2018-09-30T09:05:50.604Z,1935.00
2018-09-30T09:06:50.584Z,2002.50
2018-09-30T09:07:50.562Z,1980.00
2018-09-30T09:08:50.842Z,1940.63
2018-09-30T09:09:50.526Z,1946.25
2018-09-30T09:10:50.495Z,2025.00
2018-09-30T09:11:50.474Z,2041.88
2018-09-30T09:12:50.451Z,2058.75
2018-09-30T09:13:50.430Z,2171.25
2018-09-30T09:14:50.409Z,2115.00
2018-09-30T09:15:50.385Z,2193.75
2018-09-30T09:16:50.363Z,2165.63
2018-09-30T09:17:50.340Z,2148.75
2018-09-30T09:18:50.320Z,2278.13
2018-09-30T09:19:50.297Z,2306.25
2018-09-30T09:20:50.277Z,2238.75
2018-09-30T09:21:50.258Z,2283.75
2018-09-30T09:22:50.381Z,2261.25
2018-09-30T09:23:50.207Z,2250.00
2018-09-30T09:24:50.187Z,2238.75
2018-09-30T09:25:50.164Z,2278.13
2018-09-30T09:26:50.142Z,2272.50
2018-09-30T09:27:50.122Z,2244.38
2018-09-30T09:28:50.099Z,2295.00
2018-09-30T09:29:50.076Z,2328.75
2018-09-30T09:30:50.057Z,2278.13
2018-09-30T09:31:50.174Z,2328.75
2018-09-30T09:32:50.020Z,2334.38
2018-09-30T09:33:49.990Z,2351.25
2018-09-30T09:34:50.169Z,2413.13
2018-09-30T09:36:32.306Z,2407.50
2018-09-30T09:37:32.081Z,2475.00
2018-09-30T09:38:32.128Z,2418.75
2018-09-30T09:39:32.041Z,2418.75
2018-09-30T09:40:32.017Z,2446.88
2018-09-30T09:41:31.992Z,2401.88
2018-09-30T09:42:31.974Z,2379.38
2018-09-30T09:43:31.950Z,2430.00
2018-09-30T09:44:31.931Z,2491.88
2018-09-30T09:45:31.908Z,2452.50
2018-09-30T09:46:31.893Z,2469.38
2018-09-30T09:47:31.871Z,2401.88
2018-09-30T09:48:31.844Z,2458.13
2018-09-30T09:49:31.821Z,2525.63
2018-09-30T09:50:31.800Z,2508.75
2018-09-30T09:51:31.779Z,2655.00
2018-09-30T09:52:31.806Z,2536.88
2018-09-30T09:53:31.735Z,2576.25
2018-09-30T09:54:31.712Z,2559.38
2018-09-30T09:55:31.692Z,2598.75
2018-09-30T09:56:31.671Z,2655.00
2018-09-30T09:57:31.648Z,2638.13
2018-09-30T09:58:31.628Z,2604.38
2018-09-30T09:59:31.736Z,2593.13
2018-09-30T10:00:31.586Z,2548.13
2018-09-30T10:01:31.573Z,2643.75
2018-09-30T10:02:31.543Z,2773.13
2018-09-30T10:03:31.520Z,2868.75
2018-09-30T10:04:31.498Z,1591.88
2018-09-30T10:05:31.474Z,1603.13
2018-09-30T10:06:31.454Z,1738.13
2018-09-30T10:07:31.433Z,1530.00
2018-09-30T10:08:31.414Z,1625.63
2018-09-30T10:09:31.388Z,1861.88
2018-09-30T10:10:31.366Z,2818.13
2018-09-30T10:11:31.345Z,2778.75
2018-09-30T10:12:31.323Z,2778.75
2018-09-30T10:13:31.300Z,2806.88
2018-09-30T10:14:31.278Z,2806.88
2018-09-30T10:15:31.280Z,2773.13
2018-09-30T10:16:31.235Z,2958.75
2018-09-30T10:17:31.212Z,2835.00
2018-09-30T10:18:31.190Z,2829.38
2018-09-30T10:19:31.198Z,2970.00
2018-09-30T10:20:31.147Z,2992.50
2018-09-30T10:21:31.134Z,2947.50
2018-09-30T10:22:31.112Z,3037.50
2018-09-30T10:23:31.082Z,2784.38
2018-09-30T10:24:31.264Z,2953.13
2018-09-30T10:25:31.242Z,2818.13
2018-09-30T10:26:31.222Z,2851.88
2018-09-30T10:27:30.999Z,3043.13
2018-09-30T10:28:30.978Z,3009.38
2018-09-30T10:29:30.959Z,3009.38
2018-09-30T10:30:31.139Z,2947.50
2018-09-30T10:31:31.126Z,2823.75
2018-09-30T10:32:30.894Z,2593.13
2018-09-30T10:33:30.872Z,2638.13
2018-09-30T10:34:30.852Z,2424.38
2018-09-30T10:35:30.832Z,2396.25
2018-09-30T10:36:30.813Z,2407.50
2018-09-30T10:37:30.788Z,2711.25
2018-09-30T10:38:30.804Z,3076.88
2018-09-30T10:39:30.747Z,3099.38
2018-09-30T10:40:30.731Z,3116.25
2018-09-30T10:41:30.704Z,3172.50
2018-09-30T10:42:30.688Z,3088.13
2018-09-30T10:43:30.667Z,3144.38
2018-09-30T10:44:30.644Z,3178.13
2018-09-30T10:45:30.622Z,3161.25
2018-09-30T10:46:30.803Z,3251.25
2018-09-30T10:47:30.594Z,3245.63
2018-09-30T10:48:30.585Z,3245.63
2018-09-30T10:49:30.742Z,3290.63
2018-09-30T10:50:30.723Z,3279.38
2018-09-30T10:51:30.500Z,3346.88
2018-09-30T10:52:30.480Z,3301.88
2018-09-30T10:53:30.459Z,2891.25
2018-09-30T10:54:30.444Z,3510.00
2018-09-30T10:55:30.421Z,3375.00
2018-09-30T10:56:30.402Z,3425.63
2018-09-30T10:57:30.585Z,3532.50
2018-09-30T10:58:30.360Z,2452.50
2018-09-30T10:59:30.345Z,2013.75
2018-09-30T11:00:30.321Z,1777.50
2018-09-30T11:01:30.304Z,2086.88
2018-09-30T11:02:30.287Z,2272.50
2018-09-30T11:03:30.351Z,2328.75
2018-09-30T11:04:30.242Z,3279.38
2018-09-30T11:05:30.222Z,3301.88
2018-09-30T11:06:30.202Z,3217.50
2018-09-30T11:07:30.182Z,3088.13
2018-09-30T11:08:30.162Z,2362.50
2018-09-30T11:09:30.204Z,2435.63
2018-09-30T11:10:30.122Z,2908.13
2018-09-30T11:11:30.105Z,3245.63
2018-09-30T11:12:30.086Z,3166.88
2018-09-30T11:13:30.060Z,3093.75
2018-09-30T11:14:30.042Z,3121.88
2018-09-30T11:15:30.021Z,3071.25
2018-09-30T11:16:30.001Z,3054.38
2018-09-30T11:17:29.981Z,3071.25
2018-09-30T11:18:29.960Z,3133.13
2018-09-30T11:19:29.942Z,3161.25
2018-09-30T11:20:29.922Z,3060.00
2018-09-30T11:21:29.905Z,3048.75
2018-09-30T11:22:29.907Z,2958.75
2018-09-30T11:23:29.861Z,2975.63
2018-09-30T11:24:29.843Z,2964.38
2018-09-30T11:25:29.822Z,3009.38
2018-09-30T11:26:29.802Z,2806.88
2018-09-30T11:27:29.782Z,2300.63
2018-09-30T11:28:29.763Z,2278.13
2018-09-30T11:29:29.742Z,2593.13
2018-09-30T11:30:29.723Z,2778.75
2018-09-30T11:31:29.703Z,2823.75
2018-09-30T11:32:29.685Z,2930.63
2018-09-30T11:33:29.663Z,2925.00
2018-09-30T11:34:29.643Z,3009.38
2018-09-30T11:35:29.622Z,3054.38
2018-09-30T11:36:29.602Z,2925.00
2018-09-30T11:37:29.581Z,2885.63
2018-09-30T11:38:29.562Z,2874.38
2018-09-30T11:39:29.546Z,2874.38
2018-09-30T11:40:29.524Z,2964.38
2018-09-30T11:41:29.555Z,2986.88
2018-09-30T11:42:29.483Z,2964.38
2018-09-30T11:43:29.467Z,3015.00
2018-09-30T11:44:29.444Z,1912.50
2018-09-30T11:45:29.425Z,2953.13
2018-09-30T11:46:29.404Z,2970.00
2018-09-30T11:47:29.386Z,3060.00
2018-09-30T11:48:29.370Z,3110.63
2018-09-30T11:49:29.346Z,3127.50
2018-09-30T11:50:29.531Z,3026.25
2018-09-30T11:51:29.310Z,3037.50
2018-09-30T11:52:29.498Z,2958.75
2018-09-30T11:53:29.273Z,2986.88
2018-09-30T11:55:56.384Z,3026.25
2018-09-30T11:56:53.541Z,2941.88
2018-09-30T11:57:53.727Z,3031.88
2018-09-30T11:58:53.508Z,3206.25
2018-09-30T11:59:53.488Z,3166.88
2018-09-30T12:00:53.467Z,3144.38
2018-09-30T12:01:53.445Z,3127.50
2018-09-30T12:02:53.631Z,3060.00
2018-09-30T12:03:53.608Z,3076.88
2018-09-30T12:04:53.588Z,1372.50
2018-09-30T12:05:53.375Z,3088.13
2018-09-30T12:06:53.364Z,2998.13
2018-09-30T12:07:53.329Z,2986.88
2018-09-30T12:08:53.310Z,3121.88
2018-09-30T12:09:53.292Z,2818.13
2018-09-30T12:10:53.272Z,2795.63
2018-09-30T12:11:53.256Z,3268.13
2018-09-30T12:12:53.458Z,3200.63
2018-09-30T12:13:53.616Z,3262.50
2018-09-30T12:14:53.395Z,2885.63
2018-09-30T12:15:53.424Z,3217.50
2018-09-30T12:16:53.153Z,3245.63
2018-09-30T12:17:53.134Z,3285.00
2018-09-30T12:18:53.119Z,3245.63
2018-09-30T12:21:59.770Z,1518.75
2018-09-30T12:22:59.542Z,2773.13
2018-09-30T12:23:59.524Z,2902.50
2018-09-30T12:24:59.706Z,2356.88
2018-09-30T12:25:59.553Z,1288.13
2018-09-30T12:26:59.674Z,1226.25
2018-09-30T12:27:59.652Z,1209.38
2018-09-30T12:28:59.426Z,1310.63
2018-09-30T12:29:59.612Z,1372.50
2018-09-30T12:30:59.391Z,2154.38
2018-09-30T12:31:59.366Z,1715.63
2018-09-30T12:32:59.551Z,2328.75
2018-09-30T12:33:59.326Z,2396.25
2018-09-30T12:34:59.306Z,2300.63
2018-09-30T12:35:59.285Z,2053.13
2018-09-30T12:36:59.266Z,1794.38
2018-09-30T12:37:59.247Z,1485.00
2018-09-30T12:38:59.225Z,1265.63
2018-09-30T12:39:59.203Z,1344.38
2018-09-30T12:40:59.184Z,1260.00
2018-09-30T12:41:59.163Z,1170.00
2018-09-30T12:42:59.142Z,1445.63